Carnival Spirit — 9HA3097 — position and weather

sailwx.info

Track history (hours):
 
Tides and Currents Weather Stations Pressure Air Temp Water Temp Dewpoint Dewpoint Depression Visibility Wind Speed Wind Dir Waves Ship Positions

Carnival Spirit

Last reported at 2017-Nov-17 06:28 UTC. Time now 2017-Nov-19 14:12 UTC.
Position S 18°24' E 178°17'.

Length 293 m; draft 8.3 m.

Type: Ship. MMSI: 229136000.

Date/timePositionNaut miles runAvg speedWind from/ knotsBaromVisibWave heightAir tempDewpointWater temp
2017-Nov-17 06:28S 18°24' E 178°17'816.0
2017-Nov-17 06:00S 18°18' E 178°20'815.8
2017-Nov-17 05:30S 18°10' E 178°23'3 6.2
2017-Nov-17 05:00S 18°08' E 178°25'0 0.2
2017-Nov-17 04:30S 18°08' E 178°25'0 0.0
2017-Nov-17 04:00S 18°08' E 178°25'0 0.0
2017-Nov-17 03:30S 18°08' E 178°25'0 0.0
2017-Nov-17 03:00S 18°08' E 178°25'0 0.0
2017-Nov-17 02:30S 18°08' E 178°25'0 0.0
2017-Nov-17 02:00S 18°08' E 178°25'0 0.0
2017-Nov-17 01:27S 18°08' E 178°25'0 0.0
2017-Nov-17 01:00S 18°08' E 178°25'0 0.0
2017-Nov-17 00:30S 18°08' E 178°25'0 0.0
2017-Nov-17 00:00S 18°08' E 178°25'0 0.0
2017-Nov-16 23:30S 18°08' E 178°25'0 0.0
2017-Nov-16 23:00S 18°08' E 178°25'0 0.0
2017-Nov-16 22:30S 18°08' E 178°25'0 0.0
2017-Nov-16 22:00S 18°08' E 178°25'0 0.0
2017-Nov-16 21:30S 18°08' E 178°25'0 0.0
2017-Nov-16 21:00S 18°08' E 178°25'0 0.0
2017-Nov-16 20:30S 18°08' E 178°25'0 0.0
2017-Nov-16 20:00S 18°08' E 178°25'0 0.0
2017-Nov-16 19:30S 18°08' E 178°25'1 1.4
2017-Nov-16 19:00S 18°08' E 178°25'611.3
2017-Nov-16 18:31S 18°13' E 178°22'611.5
2017-Nov-16 18:00S 18°18' E 178°20'510.2
2017-Nov-16 17:30S 18°23' E 178°17'510.4
2017-Nov-16 17:00S 18°28' E 178°15'  
2017-Nov-14 07:46S 22°24' E 166°46'618.6
2017-Nov-14 07:28S 22°23' E 166°40'818.1
2017-Nov-14 07:00S 22°21' E 166°31'816.8
2017-Nov-14 06:30S 22°17' E 166°23'2 4.6
2017-Nov-14 05:59S 22°16' E 166°26'0 0.1
2017-Nov-14 05:29S 22°16' E 166°26'0 0.0
2017-Nov-14 04:59S 22°16' E 166°26'0 0.0
2017-Nov-14 04:29S 22°16' E 166°26'0 0.0
2017-Nov-14 03:59S 22°16' E 166°26'0 0.0
2017-Nov-14 03:29S 22°16' E 166°26'0 0.0
2017-Nov-14 02:59S 22°16' E 166°26'0 0.0
2017-Nov-14 02:29S 22°16' E 166°26'0 0.0
2017-Nov-14 01:59S 22°16' E 166°26'0 0.0
2017-Nov-14 01:29S 22°16' E 166°26'0 0.0
2017-Nov-14 00:59S 22°16' E 166°26'0 0.0
2017-Nov-14 00:29S 22°16' E 166°26'0 0.0
2017-Nov-13 23:59S 22°16' E 166°26'0 0.0
2017-Nov-13 23:29S 22°16' E 166°26'0 0.0
2017-Nov-13 22:56S 22°16' E 166°26'0 0.0
2017-Nov-13 22:29S 22°16' E 166°26'0 0.0
2017-Nov-13 21:56S 22°16' E 166°26'13712.5
2017-Nov-13 11:00S 23°42' E 164°30'82018.0 150 / 331025.127.0 19.017.525.0
2017-Nov-11 13:32S 32°44' E 152°52'318.2
2017-Nov-11 13:24S 32°46' E 152°50'718.6
2017-Nov-11 13:00S 32°51' E 152°43'918.2
2017-Nov-11 12:30S 32°57' E 152°35'917.5
2017-Nov-11 12:00S 33°03' E 152°27'917.3
2017-Nov-11 11:30S 33°09' E 152°20'917.6
2017-Nov-11 11:00S 33°15' E 152°12'3717.3
2017-Nov-11 08:51S 33°39' E 151°38'618.0
2017-Nov-11 08:30S 33°43' E 151°32'918.7
2017-Nov-11 08:00S 33°49' E 151°24'4 0.3
2017-Nov-10 19:09S 33°50' E 151°19'215.1
2017-Nov-10 19:00S 33°51' E 151°22'813.7
2017-Nov-10 18:26S 33°59' E 151°24'24916.3
2017-Nov-10 03:12S 37°56' E 149°50'418.4
2017-Nov-10 02:59S 37°58' E 149°46'918.3
2017-Nov-10 02:29S 38°03' E 149°36'1018.8
2017-Nov-10 01:59S 38°09' E 149°26'918.9
2017-Nov-10 01:30S 38°14' E 149°17'919.1
2017-Nov-10 01:00S 38°19' E 149°07'1019.2
2017-Nov-10 00:30S 38°25' E 148°57'1019.2
2017-Nov-09 23:59S 38°30' E 148°46'1719.5
2017-Nov-09 23:07S 38°40' E 148°28'219.4
2017-Nov-09 23:00S 38°41' E 148°26'1220.1
2017-Nov-09 22:25S 38°47' E 148°13'820.6
2017-Nov-09 22:01S 38°49' E 148°02'1220.6
2017-Nov-09 21:26S 38°52' E 147°48'1020.4
2017-Nov-09 20:57S 38°54' E 147°35'920.4
2017-Nov-09 20:30S 38°56' E 147°24'8018.0
2017-Nov-09 16:04S 39°05' E 145°42'719.6
2017-Nov-09 15:42S 39°02' E 145°34'77 8.3
2017-Nov-09 06:27S 37°51' E 144°56'0 0.0
2017-Nov-09 05:54S 37°51' E 144°56'0 0.0
2017-Nov-08 22:15S 37°51' E 144°56'0 0.0
2017-Nov-08 20:03S 37°51' E 144°56'0 0.0
2017-Nov-08 19:48S 37°51' E 144°56'0 0.0
2017-Nov-08 19:21S 37°51' E 144°56'0 0.0
2017-Nov-08 18:45S 37°51' E 144°56'0 0.0
2017-Nov-08 17:24S 37°51' E 144°56'0 0.0
2017-Nov-08 16:51S 37°51' E 144°56'0 0.0
2017-Nov-08 16:30S 37°51' E 144°56'0 0.0
2017-Nov-08 15:54S 37°51' E 144°56'0 0.0
2017-Nov-08 15:30S 37°51' E 144°56'0 0.0
2017-Nov-08 14:57S 37°51' E 144°56'0 0.0
2017-Nov-08 14:30S 37°51' E 144°56'0 0.0
2017-Nov-08 13:54S 37°51' E 144°56'0 0.0
2017-Nov-08 13:27S 37°51' E 144°56'0 0.0
2017-Nov-08 13:00S 37°51' E 144°56'0 0.0
2017-Nov-08 12:15S 37°51' E 144°56'0 0.0
2017-Nov-08 11:54S 37°51' E 144°56'0 0.0
2017-Nov-08 11:30S 37°51' E 144°56'0 0.0
2017-Nov-08 10:15S 37°51' E 144°56'0 0.0
2017-Nov-08 09:54S 37°51' E 144°56'0 0.0
2017-Nov-08 09:27S 37°51' E 144°56'0 0.0
2017-Nov-08 09:00S 37°51' E 144°56'0 0.0
2017-Nov-08 04:39S 37°51' E 144°56'0 0.0
2017-Nov-08 04:30S 37°51' E 144°56'0 0.0
2017-Nov-08 01:39S 37°51' E 144°56'0 0.0
2017-Nov-08 01:27S 37°51' E 144°56'0 0.0
2017-Nov-07 17:00S 37°51' E 144°56'0 0.0
2017-Nov-07 16:24S 37°51' E 144°56'0 0.0
2017-Nov-07 16:00S 37°51' E 144°56'0 0.0
2017-Nov-07 15:18S 37°51' E 144°56'0 0.0
2017-Nov-07 15:00S 37°51' E 144°56'0 0.0
2017-Nov-07 14:27S 37°51' E 144°56'0 0.0
2017-Nov-07 13:57S 37°51' E 144°56'0 0.0
2017-Nov-07 12:51S 37°51' E 144°56'0 0.0
2017-Nov-07 12:24S 37°51' E 144°56'0 0.0
2017-Nov-07 11:51S 37°51' E 144°56'0 0.0
2017-Nov-07 10:18S 37°51' E 144°56'0 0.0
2017-Nov-07 09:54S 37°51' E 144°56'0 0.0
2017-Nov-07 09:30S 37°51' E 144°56'0 0.0
2017-Nov-07 09:00S 37°51' E 144°56'0 0.0
2017-Nov-07 08:24S 37°51' E 144°56'0 0.0
2017-Nov-07 07:54S 37°51' E 144°56'0 0.0
2017-Nov-07 07:21S 37°51' E 144°56'  
Track history (hours):
 
Tides and Currents Weather Stations Pressure Air Temp Water Temp Dewpoint Dewpoint Depression Visibility Wind Speed Wind Dir Waves Ship Positions

Carnival Spirit

Last reported at 2017-Nov-17 06:28 UTC. Time now 2017-Nov-19 14:12 UTC.
Position S 18°24' E 178°17'.

Length 293 m; draft 8.3 m.

Type: Ship. MMSI: 229136000.

Date/timePositionNaut miles runAvg speedWind from/ knotsBaromVisibWave heightAir tempDewpointWater temp
2017-Nov-17 06:28S 18°24' E 178°17'816.0
2017-Nov-17 06:00S 18°18' E 178°20'815.8
2017-Nov-17 05:30S 18°10' E 178°23'3 6.2
2017-Nov-17 05:00S 18°08' E 178°25'0 0.2
2017-Nov-17 04:30S 18°08' E 178°25'0 0.0
2017-Nov-17 04:00S 18°08' E 178°25'0 0.0
2017-Nov-17 03:30S 18°08' E 178°25'0 0.0
2017-Nov-17 03:00S 18°08' E 178°25'0 0.0
2017-Nov-17 02:30S 18°08' E 178°25'0 0.0
2017-Nov-17 02:00S 18°08' E 178°25'0 0.0
2017-Nov-17 01:27S 18°08' E 178°25'0 0.0
2017-Nov-17 01:00S 18°08' E 178°25'0 0.0
2017-Nov-17 00:30S 18°08' E 178°25'0 0.0
2017-Nov-17 00:00S 18°08' E 178°25'0 0.0
2017-Nov-16 23:30S 18°08' E 178°25'0 0.0
2017-Nov-16 23:00S 18°08' E 178°25'0 0.0
2017-Nov-16 22:30S 18°08' E 178°25'0 0.0
2017-Nov-16 22:00S 18°08' E 178°25'0 0.0
2017-Nov-16 21:30S 18°08' E 178°25'0 0.0
2017-Nov-16 21:00S 18°08' E 178°25'0 0.0
2017-Nov-16 20:30S 18°08' E 178°25'0 0.0
2017-Nov-16 20:00S 18°08' E 178°25'0 0.0
2017-Nov-16 19:30S 18°08' E 178°25'1 1.4
2017-Nov-16 19:00S 18°08' E 178°25'611.3
2017-Nov-16 18:31S 18°13' E 178°22'611.5
2017-Nov-16 18:00S 18°18' E 178°20'510.2
2017-Nov-16 17:30S 18°23' E 178°17'510.4
2017-Nov-16 17:00S 18°28' E 178°15'  
2017-Nov-14 07:46S 22°24' E 166°46'618.6
2017-Nov-14 07:28S 22°23' E 166°40'818.1
2017-Nov-14 07:00S 22°21' E 166°31'816.8
2017-Nov-14 06:30S 22°17' E 166°23'2 4.6
2017-Nov-14 05:59S 22°16' E 166°26'0 0.1
2017-Nov-14 05:29S 22°16' E 166°26'0 0.0
2017-Nov-14 04:59S 22°16' E 166°26'0 0.0
2017-Nov-14 04:29S 22°16' E 166°26'0 0.0
2017-Nov-14 03:59S 22°16' E 166°26'0 0.0
2017-Nov-14 03:29S 22°16' E 166°26'0 0.0
2017-Nov-14 02:59S 22°16' E 166°26'0 0.0
2017-Nov-14 02:29S 22°16' E 166°26'0 0.0
2017-Nov-14 01:59S 22°16' E 166°26'0 0.0
2017-Nov-14 01:29S 22°16' E 166°26'0 0.0
2017-Nov-14 00:59S 22°16' E 166°26'0 0.0
2017-Nov-14 00:29S 22°16' E 166°26'0 0.0
2017-Nov-13 23:59S 22°16' E 166°26'0 0.0
2017-Nov-13 23:29S 22°16' E 166°26'0 0.0
2017-Nov-13 22:56S 22°16' E 166°26'0 0.0
2017-Nov-13 22:29S 22°16' E 166°26'0 0.0
2017-Nov-13 21:56S 22°16' E 166°26'13712.5
2017-Nov-13 11:00S 23°42' E 164°30'82018.0 150 / 331025.127.0 19.017.525.0
2017-Nov-11 13:32S 32°44' E 152°52'318.2
2017-Nov-11 13:24S 32°46' E 152°50'718.6
2017-Nov-11 13:00S 32°51' E 152°43'918.2
2017-Nov-11 12:30S 32°57' E 152°35'917.5
2017-Nov-11 12:00S 33°03' E 152°27'917.3
2017-Nov-11 11:30S 33°09' E 152°20'917.6
2017-Nov-11 11:00S 33°15' E 152°12'3717.3
2017-Nov-11 08:51S 33°39' E 151°38'618.0
2017-Nov-11 08:30S 33°43' E 151°32'918.7
2017-Nov-11 08:00S 33°49' E 151°24'4 0.3
2017-Nov-10 19:09S 33°50' E 151°19'215.1
2017-Nov-10 19:00S 33°51' E 151°22'813.7
2017-Nov-10 18:26S 33°59' E 151°24'24916.3
2017-Nov-10 03:12S 37°56' E 149°50'418.4
2017-Nov-10 02:59S 37°58' E 149°46'918.3
2017-Nov-10 02:29S 38°03' E 149°36'1018.8
2017-Nov-10 01:59S 38°09' E 149°26'918.9
2017-Nov-10 01:30S 38°14' E 149°17'919.1
2017-Nov-10 01:00S 38°19' E 149°07'1019.2
2017-Nov-10 00:30S 38°25' E 148°57'1019.2
2017-Nov-09 23:59S 38°30' E 148°46'1719.5
2017-Nov-09 23:07S 38°40' E 148°28'219.4
2017-Nov-09 23:00S 38°41' E 148°26'1220.1
2017-Nov-09 22:25S 38°47' E 148°13'820.6
2017-Nov-09 22:01S 38°49' E 148°02'1220.6
2017-Nov-09 21:26S 38°52' E 147°48'1020.4
2017-Nov-09 20:57S 38°54' E 147°35'920.4
2017-Nov-09 20:30S 38°56' E 147°24'8018.0
2017-Nov-09 16:04S 39°05' E 145°42'719.6
2017-Nov-09 15:42S 39°02' E 145°34'77 8.3
2017-Nov-09 06:27S 37°51' E 144°56'0 0.0
2017-Nov-09 05:54S 37°51' E 144°56'0 0.0
2017-Nov-08 22:15S 37°51' E 144°56'0 0.0
2017-Nov-08 20:03S 37°51' E 144°56'0 0.0
2017-Nov-08 19:48S 37°51' E 144°56'0 0.0
2017-Nov-08 19:21S 37°51' E 144°56'0 0.0
2017-Nov-08 18:45S 37°51' E 144°56'0 0.0
2017-Nov-08 17:24S 37°51' E 144°56'0 0.0
2017-Nov-08 16:51S 37°51' E 144°56'0 0.0
2017-Nov-08 16:30S 37°51' E 144°56'0 0.0
2017-Nov-08 15:54S 37°51' E 144°56'0 0.0
2017-Nov-08 15:30S 37°51' E 144°56'0 0.0
2017-Nov-08 14:57S 37°51' E 144°56'0 0.0
2017-Nov-08 14:30S 37°51' E 144°56'0 0.0
2017-Nov-08 13:54S 37°51' E 144°56'0 0.0
2017-Nov-08 13:27S 37°51' E 144°56'0 0.0
2017-Nov-08 13:00S 37°51' E 144°56'0 0.0
2017-Nov-08 12:15S 37°51' E 144°56'0 0.0
2017-Nov-08 11:54S 37°51' E 144°56'0 0.0
2017-Nov-08 11:30S 37°51' E 144°56'0 0.0
2017-Nov-08 10:15S 37°51' E 144°56'0 0.0
2017-Nov-08 09:54S 37°51' E 144°56'0 0.0
2017-Nov-08 09:27S 37°51' E 144°56'0 0.0
2017-Nov-08 09:00S 37°51' E 144°56'0 0.0
2017-Nov-08 04:39S 37°51' E 144°56'0 0.0
2017-Nov-08 04:30S 37°51' E 144°56'0 0.0
2017-Nov-08 01:39S 37°51' E 144°56'0 0.0
2017-Nov-08 01:27S 37°51' E 144°56'0 0.0
2017-Nov-07 17:00S 37°51' E 144°56'0 0.0
2017-Nov-07 16:24S 37°51' E 144°56'0 0.0
2017-Nov-07 16:00S 37°51' E 144°56'0 0.0
2017-Nov-07 15:18S 37°51' E 144°56'0 0.0
2017-Nov-07 15:00S 37°51' E 144°56'0 0.0
2017-Nov-07 14:27S 37°51' E 144°56'0 0.0
2017-Nov-07 13:57S 37°51' E 144°56'0 0.0
2017-Nov-07 12:51S 37°51' E 144°56'0 0.0
2017-Nov-07 12:24S 37°51' E 144°56'0 0.0
2017-Nov-07 11:51S 37°51' E 144°56'0 0.0
2017-Nov-07 10:18S 37°51' E 144°56'0 0.0
2017-Nov-07 09:54S 37°51' E 144°56'0 0.0
2017-Nov-07 09:30S 37°51' E 144°56'0 0.0
2017-Nov-07 09:00S 37°51' E 144°56'0 0.0
2017-Nov-07 08:24S 37°51' E 144°56'0 0.0
2017-Nov-07 07:54S 37°51' E 144°56'0 0.0
2017-Nov-07 07:21S 37°51' E 144°56'  

Dump ship's entire track history